sensor_id;sensor_type;location;lat;lon;timestamp;temperature;humidity
26272;DHT22;13997;48.902;12.472;2023-08-30T00:02:18;358.80;2329.60
26272;DHT22;13997;48.902;12.472;2023-08-30T00:04:43;358.80;2329.60
26272;DHT22;13997;48.902;12.472;2023-08-30T00:07:09;358.80;2329.60
26272;DHT22;13997;48.902;12.472;2023-08-30T00:09:36;358.80;2329.60
26272;DHT22;13997;48.902;12.472;2023-08-30T00:12:02;358.70;2329.60
26272;DHT22;13997;48.902;12.472;2023-08-30T00:14:28;358.70;2329.60
26272;DHT22;13997;48.902;12.472;2023-08-30T00:16:53;358.70;2329.60
26272;DHT22;13997;48.902;12.472;2023-08-30T00:19:19;358.70;2329.60
26272;DHT22;13997;48.902;12.472;2023-08-30T00:21:44;358.70;2329.60
26272;DHT22;13997;48.902;12.472;2023-08-30T00:24:10;358.70;2329.60
26272;DHT22;13997;48.902;12.472;2023-08-30T00:26:36;358.60;2329.60
26272;DHT22;13997;48.902;12.472;2023-08-30T00:29:01;358.70;2329.60
26272;DHT22;13997;48.902;12.472;2023-08-30T00:31:27;358.70;2329.60
26272;DHT22;13997;48.902;12.472;2023-08-30T00:33:52;358.60;2329.60
26272;DHT22;13997;48.902;12.472;2023-08-30T00:36:18;358.60;2329.60
26272;DHT22;13997;48.902;12.472;2023-08-30T00:38:44;358.60;2329.60
26272;DHT22;13997;48.902;12.472;2023-08-30T00:41:09;358.60;2329.60
26272;DHT22;13997;48.902;12.472;2023-08-30T00:43:35;358.60;2329.60
26272;DHT22;13997;48.902;12.472;2023-08-30T00:46:00;358.60;2329.60
26272;DHT22;13997;48.902;12.472;2023-08-30T00:48:27;358.60;2329.60
26272;DHT22;13997;48.902;12.472;2023-08-30T00:50:52;358.60;2329.60
26272;DHT22;13997;48.902;12.472;2023-08-30T00:53:18;358.60;2329.60
26272;DHT22;13997;48.902;12.472;2023-08-30T00:55:44;358.60;2329.60
26272;DHT22;13997;48.902;12.472;2023-08-30T00:58:10;358.60;2329.60
26272;DHT22;13997;48.902;12.472;2023-08-30T01:00:36;358.50;2329.60
26272;DHT22;13997;48.902;12.472;2023-08-30T01:03:03;358.50;2329.60
26272;DHT22;13997;48.902;12.472;2023-08-30T01:05:29;358.50;2329.60
26272;DHT22;13997;48.902;12.472;2023-08-30T01:07:55;358.60;2329.60
26272;DHT22;13997;48.902;12.472;2023-08-30T01:10:40;358.60;2329.60
26272;DHT22;13997;48.902;12.472;2023-08-30T01:13:12;358.60;2329.60
26272;DHT22;13997;48.902;12.472;2023-08-30T01:15:40;358.60;2329.60
26272;DHT22;13997;48.902;12.472;2023-08-30T01:18:07;358.60;2329.60
26272;DHT22;13997;48.902;12.472;2023-08-30T01:20:37;358.70;2329.60
26272;DHT22;13997;48.902;12.472;2023-08-30T01:23:24;358.70;2329.60
26272;DHT22;13997;48.902;12.472;2023-08-30T01:26:05;358.70;2329.60
26272;DHT22;13997;48.902;12.472;2023-08-30T01:28:34;358.70;2329.60
26272;DHT22;13997;48.902;12.472;2023-08-30T01:31:02;358.80;2329.60
26272;DHT22;13997;48.902;12.472;2023-08-30T01:33:28;358.80;2329.60
26272;DHT22;13997;48.902;12.472;2023-08-30T01:35:57;358.90;2329.60
26272;DHT22;13997;48.902;12.472;2023-08-30T01:38:25;358.90;2329.60
26272;DHT22;13997;48.902;12.472;2023-08-30T01:40:52;358.80;2329.60
26272;DHT22;13997;48.902;12.472;2023-08-30T01:43:19;358.70;2329.60
26272;DHT22;13997;48.902;12.472;2023-08-30T01:45:45;358.70;2329.60
26272;DHT22;13997;48.902;12.472;2023-08-30T01:48:15;358.70;2329.60
26272;DHT22;13997;48.902;12.472;2023-08-30T01:50:43;358.70;2329.60
26272;DHT22;13997;48.902;12.472;2023-08-30T01:53:11;358.70;2329.60
26272;DHT22;13997;48.902;12.472;2023-08-30T01:55:37;358.60;2329.60
26272;DHT22;13997;48.902;12.472;2023-08-30T01:58:04;358.60;2329.60
26272;DHT22;13997;48.902;12.472;2023-08-30T02:00:29;358.60;2329.60
26272;DHT22;13997;48.902;12.472;2023-08-30T02:02:56;358.60;2329.60
26272;DHT22;13997;48.902;12.472;2023-08-30T02:05:22;358.60;2329.60
26272;DHT22;13997;48.902;12.472;2023-08-30T02:10:17;358.60;2329.60
26272;DHT22;13997;48.902;12.472;2023-08-30T02:12:48;358.60;2329.60
26272;DHT22;13997;48.902;12.472;2023-08-30T02:15:16;358.60;2329.60
26272;DHT22;13997;48.902;12.472;2023-08-30T02:17:43;358.60;2329.60
26272;DHT22;13997;48.902;12.472;2023-08-30T02:20:09;358.60;2329.60
26272;DHT22;13997;48.902;12.472;2023-08-30T02:22:35;358.60;2329.60
26272;DHT22;13997;48.902;12.472;2023-08-30T02:25:01;358.60;2329.60
26272;DHT22;13997;48.902;12.472;2023-08-30T02:27:33;358.60;2329.60
26272;DHT22;13997;48.902;12.472;2023-08-30T02:29:59;358.60;2329.60
26272;DHT22;13997;48.902;12.472;2023-08-30T02:32:25;358.70;2329.60
26272;DHT22;13997;48.902;12.472;2023-08-30T02:34:51;358.60;2329.60
26272;DHT22;13997;48.902;12.472;2023-08-30T02:37:18;358.70;2329.60
26272;DHT22;13997;48.902;12.472;2023-08-30T02:39:44;358.60;2329.60
26272;DHT22;13997;48.902;12.472;2023-08-30T02:42:09;358.70;2329.60
26272;DHT22;13997;48.902;12.472;2023-08-30T02:44:35;358.70;2329.60
26272;DHT22;13997;48.902;12.472;2023-08-30T02:47:01;358.70;2329.60
26272;DHT22;13997;48.902;12.472;2023-08-30T02:49:26;358.70;2329.60
26272;DHT22;13997;48.902;12.472;2023-08-30T02:51:52;358.70;2329.60
26272;DHT22;13997;48.902;12.472;2023-08-30T02:54:17;358.70;2329.60
26272;DHT22;13997;48.902;12.472;2023-08-30T02:56:44;358.70;2329.60
26272;DHT22;13997;48.902;12.472;2023-08-30T02:59:11;358.70;2329.60
26272;DHT22;13997;48.902;12.472;2023-08-30T03:01:37;358.70;2329.60
26272;DHT22;13997;48.902;12.472;2023-08-30T03:04:05;358.70;2329.60
26272;DHT22;13997;48.902;12.472;2023-08-30T03:06:32;358.70;2329.60
26272;DHT22;13997;48.902;12.472;2023-08-30T03:08:58;358.80;2329.60
26272;DHT22;13997;48.902;12.472;2023-08-30T03:11:24;358.70;2329.60
26272;DHT22;13997;48.902;12.472;2023-08-30T03:13:49;358.80;2329.60
26272;DHT22;13997;48.902;12.472;2023-08-30T03:16:16;358.70;2329.60
26272;DHT22;13997;48.902;12.472;2023-08-30T03:18:43;358.70;2329.60
26272;DHT22;13997;48.902;12.472;2023-08-30T03:21:09;358.70;2329.60
26272;DHT22;13997;48.902;12.472;2023-08-30T03:23:35;358.80;2329.60
26272;DHT22;13997;48.902;12.472;2023-08-30T03:26:15;358.70;2329.60
26272;DHT22;13997;48.902;12.472;2023-08-30T03:28:42;358.70;2329.60
26272;DHT22;13997;48.902;12.472;2023-08-30T03:31:12;358.70;2329.60
26272;DHT22;13997;48.902;12.472;2023-08-30T03:33:39;358.70;2329.60
26272;DHT22;13997;48.902;12.472;2023-08-30T03:36:07;358.70;2329.60
26272;DHT22;13997;48.902;12.472;2023-08-30T03:38:33;358.70;2329.60
26272;DHT22;13997;48.902;12.472;2023-08-30T03:40:59;358.70;2329.60
26272;DHT22;13997;48.902;12.472;2023-08-30T03:43:25;358.70;2329.60
26272;DHT22;13997;48.902;12.472;2023-08-30T03:45:50;358.70;2329.60
26272;DHT22;13997;48.902;12.472;2023-08-30T03:48:17;358.70;2329.60
26272;DHT22;13997;48.902;12.472;2023-08-30T03:50:43;358.70;2329.60
26272;DHT22;13997;48.902;12.472;2023-08-30T03:53:08;358.70;2329.60
26272;DHT22;13997;48.902;12.472;2023-08-30T03:55:34;358.70;2329.60
26272;DHT22;13997;48.902;12.472;2023-08-30T03:57:59;358.70;2329.60
26272;DHT22;13997;48.902;12.472;2023-08-30T04:00:25;358.70;2329.60
26272;DHT22;13997;48.902;12.472;2023-08-30T04:02:50;358.70;2329.60
26272;DHT22;13997;48.902;12.472;2023-08-30T04:05:16;358.70;2329.60
26272;DHT22;13997;48.902;12.472;2023-08-30T04:07:42;358.70;2329.60
26272;DHT22;13997;48.902;12.472;2023-08-30T04:10:07;358.70;2329.60
26272;DHT22;13997;48.902;12.472;2023-08-30T04:12:34;358.70;2329.60
26272;DHT22;13997;48.902;12.472;2023-08-30T04:15:01;358.70;2329.60
26272;DHT22;13997;48.902;12.472;2023-08-30T04:17:26;358.70;2329.60
26272;DHT22;13997;48.902;12.472;2023-08-30T04:19:52;358.70;2329.60
26272;DHT22;13997;48.902;12.472;2023-08-30T04:22:18;358.70;2329.60
26272;DHT22;13997;48.902;12.472;2023-08-30T04:24:45;358.70;2329.60
26272;DHT22;13997;48.902;12.472;2023-08-30T04:27:11;358.70;2329.60
26272;DHT22;13997;48.902;12.472;2023-08-30T04:29:36;358.70;2329.60
26272;DHT22;13997;48.902;12.472;2023-08-30T04:32:02;358.70;2329.60
26272;DHT22;13997;48.902;12.472;2023-08-30T04:34:27;358.70;2329.60
26272;DHT22;13997;48.902;12.472;2023-08-30T04:36:54;358.70;2329.60
26272;DHT22;13997;48.902;12.472;2023-08-30T04:39:20;358.70;2329.60
26272;DHT22;13997;48.902;12.472;2023-08-30T04:41:45;358.60;2329.60
26272;DHT22;13997;48.902;12.472;2023-08-30T04:44:11;358.70;2329.60
26272;DHT22;13997;48.902;12.472;2023-08-30T04:46:36;358.70;2329.60
26272;DHT22;13997;48.902;12.472;2023-08-30T04:49:02;358.70;2329.60
26272;DHT22;13997;48.902;12.472;2023-08-30T04:51:28;358.60;2329.60
26272;DHT22;13997;48.902;12.472;2023-08-30T04:53:53;358.70;2329.60
26272;DHT22;13997;48.902;12.472;2023-08-30T04:56:19;358.70;2329.60
26272;DHT22;13997;48.902;12.472;2023-08-30T04:58:44;358.70;2329.60
26272;DHT22;13997;48.902;12.472;2023-08-30T05:01:10;358.70;2329.60
26272;DHT22;13997;48.902;12.472;2023-08-30T05:03:39;358.70;2329.60
26272;DHT22;13997;48.902;12.472;2023-08-30T05:06:04;358.70;2329.60
26272;DHT22;13997;48.902;12.472;2023-08-30T05:08:30;358.70;2329.60
26272;DHT22;13997;48.902;12.472;2023-08-30T05:10:56;358.70;2329.60
26272;DHT22;13997;48.902;12.472;2023-08-30T05:13:21;358.80;2329.60
26272;DHT22;13997;48.902;12.472;2023-08-30T05:15:47;358.80;2329.60
26272;DHT22;13997;48.902;12.472;2023-08-30T05:18:13;358.70;2329.60
26272;DHT22;13997;48.902;12.472;2023-08-30T05:20:38;358.80;2329.60
26272;DHT22;13997;48.902;12.472;2023-08-30T05:23:04;358.80;2329.60
26272;DHT22;13997;48.902;12.472;2023-08-30T05:25:29;358.80;2329.60
26272;DHT22;13997;48.902;12.472;2023-08-30T05:27:55;358.80;2329.60
26272;DHT22;13997;48.902;12.472;2023-08-30T05:30:20;358.90;2329.60
26272;DHT22;13997;48.902;12.472;2023-08-30T05:32:46;358.90;2329.60
26272;DHT22;13997;48.902;12.472;2023-08-30T05:35:12;359.00;2329.60
26272;DHT22;13997;48.902;12.472;2023-08-30T05:37:37;358.90;2329.60
26272;DHT22;13997;48.902;12.472;2023-08-30T05:40:03;359.00;2329.60
26272;DHT22;13997;48.902;12.472;2023-08-30T05:42:29;359.00;2329.60
26272;DHT22;13997;48.902;12.472;2023-08-30T05:44:55;359.00;2329.60
26272;DHT22;13997;48.902;12.472;2023-08-30T05:47:21;358.90;2329.60
26272;DHT22;13997;48.902;12.472;2023-08-30T05:49:46;358.90;2329.60
26272;DHT22;13997;48.902;12.472;2023-08-30T05:52:12;358.90;2329.60
26272;DHT22;13997;48.902;12.472;2023-08-30T05:54:38;358.90;2329.60
26272;DHT22;13997;48.902;12.472;2023-08-30T05:57:03;358.90;2329.60
26272;DHT22;13997;48.902;12.472;2023-08-30T05:59:29;359.00;2329.60
26272;DHT22;13997;48.902;12.472;2023-08-30T06:01:55;359.00;2329.60
26272;DHT22;13997;48.902;12.472;2023-08-30T06:04:20;359.00;2329.60
26272;DHT22;13997;48.902;12.472;2023-08-30T06:06:46;359.00;2329.60
26272;DHT22;13997;48.902;12.472;2023-08-30T06:09:12;359.00;2329.60
26272;DHT22;13997;48.902;12.472;2023-08-30T06:11:38;359.10;2329.60
26272;DHT22;13997;48.902;12.472;2023-08-30T06:14:04;359.10;2329.60
26272;DHT22;13997;48.902;12.472;2023-08-30T06:16:30;359.10;2329.60
26272;DHT22;13997;48.902;12.472;2023-08-30T06:18:56;359.20;2329.60
26272;DHT22;13997;48.902;12.472;2023-08-30T06:21:23;359.20;2329.60
26272;DHT22;13997;48.902;12.472;2023-08-30T06:23:49;359.20;2329.60
26272;DHT22;13997;48.902;12.472;2023-08-30T06:26:15;359.20;2329.60
26272;DHT22;13997;48.902;12.472;2023-08-30T06:28:41;359.20;2329.60
26272;DHT22;13997;48.902;12.472;2023-08-30T06:31:06;359.20;2329.60
26272;DHT22;13997;48.902;12.472;2023-08-30T06:33:32;359.20;2329.60
26272;DHT22;13997;48.902;12.472;2023-08-30T06:35:58;359.20;2329.60
26272;DHT22;13997;48.902;12.472;2023-08-30T06:38:23;359.20;2329.60
26272;DHT22;13997;48.902;12.472;2023-08-30T06:40:49;359.20;2329.60
26272;DHT22;13997;48.902;12.472;2023-08-30T06:43:14;359.20;2329.60
26272;DHT22;13997;48.902;12.472;2023-08-30T06:45:44;359.30;2329.60
26272;DHT22;13997;48.902;12.472;2023-08-30T06:48:09;359.30;2329.60
26272;DHT22;13997;48.902;12.472;2023-08-30T06:50:35;384.00;2329.60
26272;DHT22;13997;48.902;12.472;2023-08-30T06:53:04;384.00;2329.60
26272;DHT22;13997;48.902;12.472;2023-08-30T06:55:29;384.00;2329.60
26272;DHT22;13997;48.902;12.472;2023-08-30T06:57:55;384.00;2329.60
26272;DHT22;13997;48.902;12.472;2023-08-30T07:00:21;384.10;2329.60
26272;DHT22;13997;48.902;12.472;2023-08-30T07:02:46;384.10;2329.60
26272;DHT22;13997;48.902;12.472;2023-08-30T07:05:12;384.10;2329.60
26272;DHT22;13997;48.902;12.472;2023-08-30T07:07:38;384.10;2329.60
26272;DHT22;13997;48.902;12.472;2023-08-30T07:10:05;384.20;2329.60
26272;DHT22;13997;48.902;12.472;2023-08-30T07:12:30;384.20;2329.60
26272;DHT22;13997;48.902;12.472;2023-08-30T07:14:56;384.20;2329.60
26272;DHT22;13997;48.902;12.472;2023-08-30T07:17:22;384.20;2329.60
26272;DHT22;13997;48.902;12.472;2023-08-30T07:19:48;384.20;2329.60
26272;DHT22;13997;48.902;12.472;2023-08-30T07:22:14;384.30;2329.60
26272;DHT22;13997;48.902;12.472;2023-08-30T07:24:44;384.30;2329.60
26272;DHT22;13997;48.902;12.472;2023-08-30T07:27:10;384.30;2329.60
26272;DHT22;13997;48.902;12.472;2023-08-30T07:29:38;384.40;2329.60
26272;DHT22;13997;48.902;12.472;2023-08-30T07:32:06;384.50;2329.60
26272;DHT22;13997;48.902;12.472;2023-08-30T07:34:31;384.50;2329.60
26272;DHT22;13997;48.902;12.472;2023-08-30T07:36:57;384.60;2329.60
26272;DHT22;13997;48.902;12.472;2023-08-30T07:39:23;384.60;2329.60
26272;DHT22;13997;48.902;12.472;2023-08-30T07:41:48;384.70;2329.60
26272;DHT22;13997;48.902;12.472;2023-08-30T07:44:14;384.80;2329.60
26272;DHT22;13997;48.902;12.472;2023-08-30T07:46:40;384.90;2329.60
26272;DHT22;13997;48.902;12.472;2023-08-30T07:49:05;409.70;2355.20
26272;DHT22;13997;48.902;12.472;2023-08-30T07:51:31;409.70;2355.20
26272;DHT22;13997;48.902;12.472;2023-08-30T07:53:56;409.80;2355.20
26272;DHT22;13997;48.902;12.472;2023-08-30T07:56:22;409.80;2355.20
26272;DHT22;13997;48.902;12.472;2023-08-30T07:58:48;409.80;2355.20
26272;DHT22;13997;48.902;12.472;2023-08-30T08:01:13;409.80;2355.20
26272;DHT22;13997;48.902;12.472;2023-08-30T08:03:39;409.80;2355.20
26272;DHT22;13997;48.902;12.472;2023-08-30T08:06:06;409.90;2355.20
26272;DHT22;13997;48.902;12.472;2023-08-30T08:08:32;410.00;2355.20
26272;DHT22;13997;48.902;12.472;2023-08-30T08:10:59;410.10;2355.20
26272;DHT22;13997;48.902;12.472;2023-08-30T08:13:25;410.20;2355.20
26272;DHT22;13997;48.902;12.472;2023-08-30T08:15:51;410.30;2355.20
26272;DHT22;13997;48.902;12.472;2023-08-30T08:18:16;410.40;2355.20
26272;DHT22;13997;48.902;12.472;2023-08-30T08:20:42;435.20;2355.20
26272;DHT22;13997;48.902;12.472;2023-08-30T08:23:08;435.50;2355.20
26272;DHT22;13997;48.902;12.472;2023-08-30T08:25:34;435.50;2355.20
26272;DHT22;13997;48.902;12.472;2023-08-30T08:27:59;435.70;2355.20
26272;DHT22;13997;48.902;12.472;2023-08-30T08:30:25;435.80;2355.20
26272;DHT22;13997;48.902;12.472;2023-08-30T08:32:50;435.90;2355.20
26272;DHT22;13997;48.902;12.472;2023-08-30T08:35:16;436.10;2355.20
26272;DHT22;13997;48.902;12.472;2023-08-30T08:37:42;460.80;2380.80
26272;DHT22;13997;48.902;12.472;2023-08-30T08:40:08;461.00;2380.80
26272;DHT22;13997;48.902;12.472;2023-08-30T08:42:34;461.00;2380.80
26272;DHT22;13997;48.902;12.472;2023-08-30T08:45:02;461.20;2380.80
26272;DHT22;13997;48.902;12.472;2023-08-30T08:47:30;461.30;2380.80
26272;DHT22;13997;48.902;12.472;2023-08-30T08:49:55;461.40;2380.80
26272;DHT22;13997;48.902;12.472;2023-08-30T08:52:21;461.60;2380.80
26272;DHT22;13997;48.902;12.472;2023-08-30T08:54:47;486.40;2380.80
26272;DHT22;13997;48.902;12.472;2023-08-30T08:57:13;486.60;2380.80
26272;DHT22;13997;48.902;12.472;2023-08-30T08:59:39;486.90;2380.80
26272;DHT22;13997;48.902;12.472;2023-08-30T09:02:05;487.10;2380.80
26272;DHT22;13997;48.902;12.472;2023-08-30T09:04:31;487.30;2380.80
26272;DHT22;13997;48.902;12.472;2023-08-30T09:07:01;487.30;2380.80
26272;DHT22;13997;48.902;12.472;2023-08-30T09:09:27;487.00;2380.80
26272;DHT22;13997;48.902;12.472;2023-08-30T09:11:53;486.80;2380.80
26272;DHT22;13997;48.902;12.472;2023-08-30T09:14:19;486.80;2380.80
26272;DHT22;13997;48.902;12.472;2023-08-30T09:17:02;487.00;2380.80
26272;DHT22;13997;48.902;12.472;2023-08-30T09:19:28;487.30;2380.80
26272;DHT22;13997;48.902;12.472;2023-08-30T09:21:55;512.00;2380.80
26272;DHT22;13997;48.902;12.472;2023-08-30T09:24:21;512.20;2380.80
26272;DHT22;13997;48.902;12.472;2023-08-30T09:26:48;512.50;2380.80
26272;DHT22;13997;48.902;12.472;2023-08-30T09:29:17;512.60;2380.80
26272;DHT22;13997;48.902;12.472;2023-08-30T09:31:43;512.50;2380.80
26272;DHT22;13997;48.902;12.472;2023-08-30T09:34:09;512.50;2380.80
26272;DHT22;13997;48.902;12.472;2023-08-30T09:36:37;512.60;2380.80
26272;DHT22;13997;48.902;12.472;2023-08-30T09:39:13;512.70;2380.80
26272;DHT22;13997;48.902;12.472;2023-08-30T09:41:48;512.50;2380.80
26272;DHT22;13997;48.902;12.472;2023-08-30T09:44:16;512.30;2380.80
26272;DHT22;13997;48.902;12.472;2023-08-30T09:49:23;512.10;2380.80
26272;DHT22;13997;48.902;12.472;2023-08-30T09:51:50;512.00;2380.80
26272;DHT22;13997;48.902;12.472;2023-08-30T09:54:27;487.10;2380.80
26272;DHT22;13997;48.902;12.472;2023-08-30T09:56:54;486.90;2380.80
26272;DHT22;13997;48.902;12.472;2023-08-30T09:59:21;487.00;2380.80
26272;DHT22;13997;48.902;12.472;2023-08-30T10:01:48;487.00;2380.80
26272;DHT22;13997;48.902;12.472;2023-08-30T10:04:15;487.30;2380.80
26272;DHT22;13997;48.902;12.472;2023-08-30T10:06:41;512.30;2380.80
26272;DHT22;13997;48.902;12.472;2023-08-30T10:09:08;512.60;2380.80
26272;DHT22;13997;48.902;12.472;2023-08-30T10:11:36;512.60;2380.80
26272;DHT22;13997;48.902;12.472;2023-08-30T10:14:08;512.50;2380.80
26272;DHT22;13997;48.902;12.472;2023-08-30T10:16:47;512.60;2380.80
26272;DHT22;13997;48.902;12.472;2023-08-30T10:19:17;512.90;2380.80
26272;DHT22;13997;48.902;12.472;2023-08-30T10:21:48;537.70;2406.40
26272;DHT22;13997;48.902;12.472;2023-08-30T10:24:20;537.90;2406.40
26272;DHT22;13997;48.902;12.472;2023-08-30T10:26:48;537.80;2406.40
26272;DHT22;13997;48.902;12.472;2023-08-30T10:29:15;537.70;2406.40
26272;DHT22;13997;48.902;12.472;2023-08-30T10:31:42;537.70;2406.40
26272;DHT22;13997;48.902;12.472;2023-08-30T10:34:17;537.70;2406.40
26272;DHT22;13997;48.902;12.472;2023-08-30T10:36:44;537.70;2406.40
26272;DHT22;13997;48.902;12.472;2023-08-30T10:39:14;537.60;2406.40
26272;DHT22;13997;48.902;12.472;2023-08-30T10:41:56;512.90;2380.80
26272;DHT22;13997;48.902;12.472;2023-08-30T10:44:23;537.60;2406.40
26272;DHT22;13997;48.902;12.472;2023-08-30T10:46:55;512.70;2380.80
26272;DHT22;13997;48.902;12.472;2023-08-30T10:49:21;512.60;2380.80
26272;DHT22;13997;48.902;12.472;2023-08-30T10:51:57;512.50;2380.80
26272;DHT22;13997;48.902;12.472;2023-08-30T10:54:24;512.40;2380.80
26272;DHT22;13997;48.902;12.472;2023-08-30T10:56:57;512.40;2380.80
26272;DHT22;13997;48.902;12.472;2023-08-30T10:59:26;512.50;2380.80
26272;DHT22;13997;48.902;12.472;2023-08-30T11:01:53;512.70;2380.80
26272;DHT22;13997;48.902;12.472;2023-08-30T11:04:19;512.80;2380.80
26272;DHT22;13997;48.902;12.472;2023-08-30T11:06:49;512.90;2380.80
26272;DHT22;13997;48.902;12.472;2023-08-30T11:09:16;512.80;2380.80
26272;DHT22;13997;48.902;12.472;2023-08-30T11:11:46;537.60;2406.40
26272;DHT22;13997;48.902;12.472;2023-08-30T11:14:12;537.70;2406.40
26272;DHT22;13997;48.902;12.472;2023-08-30T11:16:38;537.70;2406.40
26272;DHT22;13997;48.902;12.472;2023-08-30T11:19:05;537.70;2406.40
26272;DHT22;13997;48.902;12.472;2023-08-30T11:21:32;512.90;2380.80
26272;DHT22;13997;48.902;12.472;2023-08-30T11:23:58;512.90;2380.80
26272;DHT22;13997;48.902;12.472;2023-08-30T11:26:24;512.90;2380.80
26272;DHT22;13997;48.902;12.472;2023-08-30T11:28:50;512.80;2380.80
26272;DHT22;13997;48.902;12.472;2023-08-30T11:31:24;512.80;2380.80
26272;DHT22;13997;48.902;12.472;2023-08-30T11:33:55;512.70;2380.80
26272;DHT22;13997;48.902;12.472;2023-08-30T11:36:23;512.80;2380.80
26272;DHT22;13997;48.902;12.472;2023-08-30T11:38:55;512.70;2380.80
26272;DHT22;13997;48.902;12.472;2023-08-30T11:41:21;512.50;2380.80
26272;DHT22;13997;48.902;12.472;2023-08-30T11:43:53;512.40;2380.80
26272;DHT22;13997;48.902;12.472;2023-08-30T11:46:20;512.40;2380.80
26272;DHT22;13997;48.902;12.472;2023-08-30T11:48:47;512.40;2380.80
26272;DHT22;13997;48.902;12.472;2023-08-30T11:51:13;512.50;2380.80
26272;DHT22;13997;48.902;12.472;2023-08-30T11:53:39;512.60;2380.80
26272;DHT22;13997;48.902;12.472;2023-08-30T11:56:06;512.60;2380.80
26272;DHT22;13997;48.902;12.472;2023-08-30T11:58:32;512.70;2380.80
26272;DHT22;13997;48.902;12.472;2023-08-30T12:00:58;512.80;2380.80
26272;DHT22;13997;48.902;12.472;2023-08-30T12:03:29;512.90;2380.80
26272;DHT22;13997;48.902;12.472;2023-08-30T12:05:56;537.60;2406.40
26272;DHT22;13997;48.902;12.472;2023-08-30T12:08:30;537.70;2406.40
26272;DHT22;13997;48.902;12.472;2023-08-30T12:10:57;537.80;2406.40
26272;DHT22;13997;48.902;12.472;2023-08-30T12:13:29;537.90;2406.40
26272;DHT22;13997;48.902;12.472;2023-08-30T12:15:56;538.00;2406.40
26272;DHT22;13997;48.902;12.472;2023-08-30T12:18:42;537.80;2406.40
26272;DHT22;13997;48.902;12.472;2023-08-30T12:21:08;537.70;2406.40
26272;DHT22;13997;48.902;12.472;2023-08-30T12:23:34;537.70;2406.40
26272;DHT22;13997;48.902;12.472;2023-08-30T12:26:03;537.80;2406.40
26272;DHT22;13997;48.902;12.472;2023-08-30T12:28:31;537.70;2406.40
26272;DHT22;13997;48.902;12.472;2023-08-30T12:30:57;537.70;2406.40
26272;DHT22;13997;48.902;12.472;2023-08-30T12:33:23;537.70;2406.40
26272;DHT22;13997;48.902;12.472;2023-08-30T12:35:54;537.80;2406.40
26272;DHT22;13997;48.902;12.472;2023-08-30T12:38:20;537.90;2406.40
26272;DHT22;13997;48.902;12.472;2023-08-30T12:40:50;537.90;2406.40
26272;DHT22;13997;48.902;12.472;2023-08-30T12:43:17;537.80;2406.40
26272;DHT22;13997;48.902;12.472;2023-08-30T12:45:43;537.80;2406.40
26272;DHT22;13997;48.902;12.472;2023-08-30T12:48:10;537.80;2406.40
26272;DHT22;13997;48.902;12.472;2023-08-30T12:50:37;537.70;2406.40
26272;DHT22;13997;48.902;12.472;2023-08-30T12:53:06;537.70;2406.40
26272;DHT22;13997;48.902;12.472;2023-08-30T12:55:32;537.70;2406.40
26272;DHT22;13997;48.902;12.472;2023-08-30T12:57:59;537.70;2406.40
26272;DHT22;13997;48.902;12.472;2023-08-30T13:00:25;537.60;2406.40
26272;DHT22;13997;48.902;12.472;2023-08-30T13:02:51;537.70;2406.40
26272;DHT22;13997;48.902;12.472;2023-08-30T13:05:17;537.70;2406.40
26272;DHT22;13997;48.902;12.472;2023-08-30T13:07:43;537.70;2406.40
26272;DHT22;13997;48.902;12.472;2023-08-30T13:10:09;537.70;2406.40
26272;DHT22;13997;48.902;12.472;2023-08-30T13:12:35;537.60;2406.40
26272;DHT22;13997;48.902;12.472;2023-08-30T13:15:01;512.80;2380.80
26272;DHT22;13997;48.902;12.472;2023-08-30T13:17:27;512.70;2380.80
26272;DHT22;13997;48.902;12.472;2023-08-30T13:19:52;512.60;2380.80
26272;DHT22;13997;48.902;12.472;2023-08-30T13:22:18;512.40;2380.80
26272;DHT22;13997;48.902;12.472;2023-08-30T13:24:44;512.40;2380.80
26272;DHT22;13997;48.902;12.472;2023-08-30T13:27:10;512.20;2380.80
26272;DHT22;13997;48.902;12.472;2023-08-30T13:29:36;487.30;2380.80
26272;DHT22;13997;48.902;12.472;2023-08-30T13:32:02;487.10;2380.80
26272;DHT22;13997;48.902;12.472;2023-08-30T13:34:28;487.00;2380.80
26272;DHT22;13997;48.902;12.472;2023-08-30T13:36:54;486.80;2380.80
26272;DHT22;13997;48.902;12.472;2023-08-30T13:39:19;486.70;2380.80
26272;DHT22;13997;48.902;12.472;2023-08-30T13:41:49;486.70;2380.80
26272;DHT22;13997;48.902;12.472;2023-08-30T13:44:14;486.60;2380.80
26272;DHT22;13997;48.902;12.472;2023-08-30T13:46:40;486.40;2380.80
26272;DHT22;13997;48.902;12.472;2023-08-30T13:49:06;461.60;2380.80
26272;DHT22;13997;48.902;12.472;2023-08-30T13:51:32;461.50;2380.80
26272;DHT22;13997;48.902;12.472;2023-08-30T13:53:57;461.30;2380.80
26272;DHT22;13997;48.902;12.472;2023-08-30T13:56:23;461.30;2380.80
26272;DHT22;13997;48.902;12.472;2023-08-30T13:58:49;461.30;2380.80
26272;DHT22;13997;48.902;12.472;2023-08-30T14:01:15;461.00;2380.80
26272;DHT22;13997;48.902;12.472;2023-08-30T14:03:42;460.80;2380.80
26272;DHT22;13997;48.902;12.472;2023-08-30T14:06:07;460.80;2380.80
26272;DHT22;13997;48.902;12.472;2023-08-30T14:08:33;436.10;2355.20
26272;DHT22;13997;48.902;12.472;2023-08-30T14:10:59;435.90;2355.20
26272;DHT22;13997;48.902;12.472;2023-08-30T14:13:24;435.90;2355.20
26272;DHT22;13997;48.902;12.472;2023-08-30T14:15:50;435.90;2355.20
26272;DHT22;13997;48.902;12.472;2023-08-30T14:18:15;435.90;2355.20
26272;DHT22;13997;48.902;12.472;2023-08-30T14:20:42;436.00;2355.20
26272;DHT22;13997;48.902;12.472;2023-08-30T14:23:08;436.00;2355.20
26272;DHT22;13997;48.902;12.472;2023-08-30T14:25:33;436.00;2355.20
26272;DHT22;13997;48.902;12.472;2023-08-30T14:28:00;436.00;2355.20
26272;DHT22;13997;48.902;12.472;2023-08-30T14:30:26;435.90;2355.20
26272;DHT22;13997;48.902;12.472;2023-08-30T14:32:52;435.90;2355.20
26272;DHT22;13997;48.902;12.472;2023-08-30T14:35:18;435.90;2355.20
26272;DHT22;13997;48.902;12.472;2023-08-30T14:37:46;435.90;2355.20
26272;DHT22;13997;48.902;12.472;2023-08-30T14:40:13;435.90;2355.20